createdAt,value
2018-04-25T00:00:54.515Z,8.00
2018-04-25T00:03:20.819Z,4.33
2018-04-25T00:05:47.055Z,4.97
2018-04-25T00:08:13.315Z,6.67
2018-04-25T00:10:39.588Z,4.77
2018-04-25T00:13:05.823Z,7.20
2018-04-25T00:15:32.076Z,6.33
2018-04-25T00:17:58.368Z,5.90
2018-04-25T00:20:24.600Z,4.97
2018-04-25T00:22:50.875Z,11.00
2018-04-25T00:25:17.146Z,8.00
2018-04-25T00:27:43.399Z,10.60
2018-04-25T00:30:09.643Z,5.67
2018-04-25T00:32:35.929Z,7.23
2018-04-25T00:35:02.232Z,10.53
2018-04-25T00:37:28.463Z,11.20
2018-04-25T00:39:54.734Z,6.20
2018-04-25T00:42:20.950Z,7.97
2018-04-25T00:44:47.239Z,8.93
2018-04-25T00:47:13.518Z,6.23
2018-04-25T00:49:39.839Z,6.13
2018-04-25T00:52:06.115Z,13.77
2018-04-25T00:54:32.388Z,7.53
2018-04-25T00:56:59.427Z,7.97
2018-04-25T00:59:25.651Z,5.17
2018-04-25T01:01:52.660Z,13.30
2018-04-25T01:04:18.919Z,6.80
2018-04-25T01:06:45.178Z,5.87
2018-04-25T01:09:11.471Z,8.10
2018-04-25T01:11:37.774Z,8.80
2018-04-25T01:14:03.947Z,10.97
2018-04-25T01:16:30.978Z,7.63
2018-04-25T01:18:57.323Z,6.97
2018-04-25T01:21:24.331Z,9.27
2018-04-25T01:23:50.597Z,8.00
2018-04-25T01:26:17.615Z,6.40
2018-04-25T01:28:45.689Z,9.13
2018-04-25T01:31:33.890Z,6.97
2018-04-25T01:34:04.915Z,7.97
2018-04-25T01:36:34.922Z,8.43
2018-04-25T01:39:02.196Z,10.80
2018-04-25T01:41:28.474Z,6.90
2018-04-25T01:43:54.746Z,8.93
2018-04-25T01:46:21.066Z,5.83
2018-04-25T01:52:15.103Z,13.10
2018-04-25T01:54:53.643Z,9.53
2018-04-25T01:57:32.210Z,11.77
2018-04-25T02:00:10.745Z,6.97
2018-04-25T02:02:36.806Z,7.53
2018-04-25T02:05:03.086Z,9.30
2018-04-25T02:07:29.371Z,7.70
2018-04-25T02:09:55.588Z,13.70
2018-04-25T02:12:21.823Z,6.60
2018-04-25T02:14:48.130Z,7.90
2018-04-25T02:17:14.375Z,8.90
2018-04-25T02:19:40.599Z,10.80
2018-04-25T02:22:06.911Z,11.87
2018-04-25T02:24:33.154Z,9.77
2018-04-25T02:26:59.393Z,8.17
2018-04-25T02:29:25.654Z,14.97
2018-04-25T02:31:51.901Z,13.17
2018-04-25T02:34:18.125Z,7.20
2018-04-25T02:36:44.415Z,6.90
2018-04-25T02:39:10.679Z,10.40
2018-04-25T02:41:36.918Z,9.53
2018-04-25T02:44:03.217Z,11.27
2018-04-25T02:46:30.169Z,11.40
2018-04-25T02:48:56.523Z,6.80
2018-04-25T02:51:22.739Z,15.27
2018-04-25T02:53:48.980Z,12.30
2018-04-25T02:56:15.266Z,17.63
2018-04-25T02:58:41.474Z,7.33
2018-04-25T03:01:07.715Z,11.33
2018-04-25T03:03:34.026Z,7.57
2018-04-25T03:06:00.256Z,19.40
2018-04-25T03:08:26.468Z,7.90
2018-04-25T03:10:52.720Z,5.80
2018-04-25T03:13:18.953Z,10.10
2018-04-25T03:15:45.188Z,9.13
2018-04-25T03:18:11.575Z,6.63
2018-04-25T03:20:37.863Z,7.73
2018-04-25T03:23:04.803Z,8.70
2018-04-25T03:25:31.071Z,9.17
2018-04-25T03:27:57.309Z,9.93
2018-04-25T03:30:23.556Z,7.67
2018-04-25T03:32:49.823Z,13.10
2018-04-25T03:35:16.851Z,9.00
2018-04-25T03:37:43.083Z,9.67
2018-04-25T03:40:09.307Z,8.50
2018-04-25T03:42:35.567Z,8.97
2018-04-25T03:45:01.824Z,12.10
2018-04-25T03:47:28.067Z,9.67
2018-04-25T03:49:54.329Z,10.30
2018-04-25T03:52:20.672Z,6.80
2018-04-25T03:54:47.647Z,10.20
2018-04-25T03:57:13.903Z,15.47
2018-04-25T03:59:40.196Z,9.60
2018-04-25T04:02:06.431Z,17.60
2018-04-25T04:04:32.704Z,17.53
2018-04-25T04:06:58.943Z,14.30
2018-04-25T04:09:25.155Z,14.77
2018-04-25T04:11:51.450Z,8.00
2018-04-25T04:14:17.665Z,16.93
2018-04-25T04:16:43.967Z,17.67
2018-04-25T04:19:10.982Z,11.53
2018-04-25T04:21:37.300Z,11.10
2018-04-25T04:24:03.567Z,13.30
2018-04-25T04:26:29.842Z,9.80
2018-04-25T04:28:56.068Z,14.20
2018-04-25T04:31:22.291Z,9.40
2018-04-25T04:33:48.559Z,12.40
2018-04-25T04:36:14.804Z,8.53
2018-04-25T04:38:41.084Z,18.63
2018-04-25T04:41:07.338Z,12.00
2018-04-25T04:43:33.555Z,12.13
2018-04-25T04:45:59.752Z,8.50
2018-04-25T04:48:25.991Z,12.50
2018-04-25T04:50:52.224Z,16.17
2018-04-25T04:53:18.496Z,14.77
2018-04-25T04:55:44.735Z,10.60
2018-04-25T04:58:10.964Z,9.60
2018-04-25T05:00:37.967Z,8.57
2018-04-25T05:03:04.257Z,11.57
2018-04-25T05:05:31.240Z,8.60
2018-04-25T05:07:57.460Z,8.60
2018-04-25T05:10:23.684Z,11.33
2018-04-25T05:12:49.896Z,11.07
2018-04-25T05:15:16.170Z,13.13
2018-04-25T05:17:42.403Z,12.50
2018-04-25T05:20:08.653Z,15.00
2018-04-25T05:22:34.863Z,7.50
2018-04-25T05:25:01.127Z,17.73
2018-04-25T05:27:28.124Z,12.30
2018-04-25T05:29:54.373Z,11.33
2018-04-25T05:32:20.628Z,13.07
2018-04-25T05:34:47.567Z,12.30
2018-04-25T05:37:14.569Z,15.43
2018-04-25T05:39:40.776Z,18.37
2018-04-25T05:42:06.988Z,15.80
2018-04-25T05:44:33.265Z,17.93
2018-04-25T05:46:59.536Z,10.17
2018-04-25T05:49:26.528Z,20.70
2018-04-25T05:51:52.759Z,13.70
2018-04-25T05:54:18.985Z,10.53
2018-04-25T05:56:45.207Z,10.30
2018-04-25T05:59:11.383Z,12.03
2018-04-25T06:01:38.342Z,14.10
2018-04-25T06:04:05.299Z,14.17
2018-04-25T06:06:31.492Z,12.97
2018-04-25T06:08:57.719Z,13.40
2018-04-25T06:11:24.120Z,13.43
2018-04-25T06:13:50.341Z,12.10
2018-04-25T06:16:16.573Z,19.00
2018-04-25T06:18:42.825Z,12.87
2018-04-25T06:21:11.111Z,14.30
2018-04-25T06:23:38.121Z,9.73
2018-04-25T06:26:04.368Z,12.30
2018-04-25T06:28:30.644Z,18.20
2018-04-25T06:30:56.862Z,11.53
2018-04-25T06:33:23.140Z,19.67
2018-04-25T06:35:49.374Z,15.27
2018-04-25T06:38:15.574Z,14.70
2018-04-25T06:40:41.840Z,14.23
2018-04-25T06:43:08.081Z,14.77
2018-04-25T06:45:34.278Z,12.77
2018-04-25T06:48:00.532Z,12.90
2018-04-25T06:50:26.770Z,16.90
2018-04-25T06:52:54.804Z,10.73
2018-04-25T06:55:21.137Z,23.40
2018-04-25T06:57:47.399Z,10.43
2018-04-25T07:00:13.682Z,15.17
2018-04-25T07:02:39.938Z,19.83
2018-04-25T07:05:06.212Z,12.30
2018-04-25T07:07:32.508Z,12.03
2018-04-25T07:09:58.754Z,12.33
2018-04-25T07:12:25.024Z,12.13
2018-04-25T07:14:51.298Z,12.60
2018-04-25T07:17:17.571Z,14.60
2018-04-25T07:19:43.850Z,14.10
2018-04-25T07:22:10.068Z,8.93
2018-04-25T07:24:36.335Z,15.03
2018-04-25T07:27:03.335Z,18.70
2018-04-25T07:29:30.120Z,16.30
2018-04-25T07:31:56.276Z,12.20
2018-04-25T07:34:22.518Z,14.40
2018-04-25T07:36:48.763Z,8.43
2018-04-25T07:39:14.985Z,17.33
2018-04-25T07:41:41.279Z,14.20
2018-04-25T07:44:07.492Z,17.77
2018-04-25T07:46:34.547Z,9.67
2018-04-25T07:49:00.800Z,12.77
2018-04-25T07:51:27.019Z,15.00
2018-04-25T07:53:53.235Z,24.27
2018-04-25T07:56:19.452Z,17.57
2018-04-25T07:58:46.431Z,9.03
2018-04-25T08:01:12.679Z,13.83
2018-04-25T08:03:38.905Z,17.50
2018-04-25T08:06:05.257Z,20.43
2018-04-25T08:08:31.423Z,13.77
2018-04-25T08:10:57.716Z,15.33
2018-04-25T08:13:36.080Z,23.43
2018-04-25T08:16:14.624Z,10.70
2018-04-25T08:21:48.978Z,12.00
2018-04-25T08:24:15.197Z,10.80
2018-04-25T08:26:41.421Z,20.47
2018-04-25T08:29:07.671Z,20.57
2018-04-25T08:31:33.919Z,13.23
2018-04-25T08:34:00.154Z,15.53
2018-04-25T08:36:27.147Z,13.00
2018-04-25T08:38:53.380Z,17.73
2018-04-25T08:41:19.607Z,17.23
2018-04-25T08:43:45.866Z,16.30
2018-04-25T08:46:12.843Z,13.60
2018-04-25T08:48:39.129Z,17.53
2018-04-25T08:51:05.400Z,14.30
2018-04-25T08:53:31.656Z,15.77
2018-04-25T08:55:57.879Z,26.63
2018-04-25T08:58:24.084Z,15.20
2018-04-25T09:00:50.335Z,19.30
2018-04-25T09:03:16.615Z,16.17
2018-04-25T09:05:43.639Z,19.37
2018-04-25T09:08:09.896Z,19.10
2018-04-25T09:10:36.870Z,22.67
2018-04-25T09:13:03.132Z,25.17
2018-04-25T09:15:29.424Z,18.50
2018-04-25T09:17:55.702Z,23.30
2018-04-25T09:20:21.988Z,22.10
2018-04-25T09:22:48.209Z,25.00
2018-04-25T09:25:14.427Z,17.87
2018-04-25T09:27:40.775Z,19.60
2018-04-25T09:30:07.066Z,20.20
2018-04-25T09:32:34.046Z,23.90
2018-04-25T09:35:00.299Z,14.90
2018-04-25T09:37:26.564Z,23.53
2018-04-25T09:39:52.802Z,23.37
2018-04-25T09:42:19.771Z,22.70
2018-04-25T09:44:46.004Z,19.93
2018-04-25T09:47:12.238Z,22.83
2018-04-25T09:49:38.498Z,15.90
2018-04-25T09:52:04.772Z,16.47
2018-04-25T09:54:31.019Z,18.33
2018-04-25T09:56:57.274Z,17.67
2018-04-25T09:59:23.499Z,12.00
2018-04-25T10:01:55.844Z,14.07
2018-04-25T10:04:22.132Z,7.13
2018-04-25T10:06:48.381Z,10.00
2018-04-25T10:09:15.381Z,15.13
2018-04-25T10:11:41.595Z,12.70
2018-04-25T10:14:07.834Z,9.37
2018-04-25T10:16:34.124Z,9.82
2018-04-25T10:19:00.345Z,11.80
2018-04-25T10:21:27.310Z,9.23
2018-04-25T10:23:53.631Z,9.03
2018-04-25T10:26:19.880Z,16.33
2018-04-25T10:28:46.092Z,10.10
2018-04-25T10:31:12.355Z,10.83
2018-04-25T10:33:38.576Z,9.83
2018-04-25T10:36:04.844Z,10.53
2018-04-25T10:38:31.811Z,9.40
2018-04-25T10:40:58.100Z,11.27
2018-04-25T10:43:24.372Z,13.23
2018-04-25T10:45:50.588Z,9.63
2018-04-25T10:48:17.581Z,13.57
2018-04-25T10:50:43.867Z,6.00
2018-04-25T10:53:10.888Z,4.87
2018-04-25T10:55:37.136Z,12.83
2018-04-25T10:58:04.117Z,14.37
2018-04-25T11:00:30.351Z,7.10
2018-04-25T11:02:56.598Z,9.13
2018-04-25T11:05:22.851Z,5.63
2018-04-25T11:07:49.111Z,8.90
2018-04-25T11:10:15.423Z,6.90
2018-04-25T11:12:42.425Z,7.37
2018-04-25T11:15:08.679Z,8.57
2018-04-25T11:17:34.879Z,12.23
2018-04-25T11:20:01.163Z,12.53
2018-04-25T11:22:28.166Z,9.13
2018-04-25T11:24:54.394Z,13.93
2018-04-25T11:27:20.590Z,9.13
2018-04-25T11:29:46.834Z,8.27
2018-04-25T11:32:13.063Z,9.30
2018-04-25T11:34:39.343Z,8.47
2018-04-25T11:37:05.553Z,8.93
2018-04-25T11:39:31.795Z,12.17
2018-04-25T11:41:58.785Z,9.03
2018-04-25T11:44:24.997Z,5.80
2018-04-25T11:46:51.244Z,5.33
2018-04-25T11:49:17.542Z,8.20
2018-04-25T11:51:43.762Z,13.67
2018-04-25T11:54:10.025Z,11.83
2018-04-25T11:56:36.299Z,20.40
2018-04-25T11:59:02.608Z,7.67
2018-04-25T12:01:28.887Z,7.67
2018-04-25T12:03:55.133Z,9.13
2018-04-25T12:06:21.334Z,7.90
2018-04-25T12:08:47.570Z,6.70
2018-04-25T12:11:13.813Z,8.03
2018-04-25T12:13:40.086Z,14.90
2018-04-25T12:16:06.370Z,7.03
2018-04-25T12:18:32.641Z,9.60
2018-04-25T12:20:58.880Z,11.63
2018-04-25T12:23:25.161Z,12.33
2018-04-25T12:25:51.411Z,3.97
2018-04-25T12:28:17.626Z,7.57
2018-04-25T12:30:43.954Z,6.87
2018-04-25T12:33:10.155Z,3.70
2018-04-25T12:35:36.414Z,8.30
2018-04-25T12:38:02.642Z,11.60
2018-04-25T12:40:28.873Z,7.93
2018-04-25T12:42:55.170Z,10.63
2018-04-25T12:45:21.372Z,35.77
2018-04-25T12:47:47.623Z,5.60
2018-04-25T12:50:14.822Z,8.73
2018-04-25T12:52:41.057Z,3.27
2018-04-25T12:55:07.282Z,8.00
2018-04-25T12:57:33.510Z,9.90
2018-04-25T12:59:59.762Z,6.27
2018-04-25T13:02:25.974Z,7.37
2018-04-25T13:04:52.230Z,9.07
2018-04-25T13:07:19.185Z,5.50
2018-04-25T13:09:46.165Z,10.73
2018-04-25T13:12:12.398Z,5.97
2018-04-25T13:14:38.680Z,5.43
2018-04-25T13:17:05.653Z,6.93
2018-04-25T13:19:31.925Z,7.27
2018-04-25T13:21:58.183Z,10.00
2018-04-25T13:24:25.177Z,7.67
2018-04-25T13:26:51.450Z,7.90
2018-04-25T13:29:18.454Z,12.10
2018-04-25T13:31:44.708Z,11.73
2018-04-25T13:34:10.926Z,10.37
2018-04-25T13:36:37.166Z,8.03
2018-04-25T13:39:03.463Z,8.73
2018-04-25T13:41:29.710Z,13.07
2018-04-25T13:43:55.957Z,9.33
2018-04-25T13:46:22.267Z,12.87
2018-04-25T13:48:48.495Z,9.57
2018-04-25T13:51:14.798Z,5.17
2018-04-25T13:53:41.078Z,9.00
2018-04-25T13:56:07.337Z,3.87
2018-04-25T13:58:33.582Z,10.90
2018-04-25T14:00:59.961Z,6.53
2018-04-25T14:03:26.958Z,8.57
2018-04-25T14:05:53.238Z,13.80
2018-04-25T14:08:19.499Z,3.30
2018-04-25T14:10:45.763Z,6.23
2018-04-25T14:13:12.023Z,4.50
2018-04-25T14:15:38.248Z,9.40
2018-04-25T14:18:04.491Z,5.07
2018-04-25T14:20:31.665Z,11.27
2018-04-25T14:22:57.947Z,4.07
2018-04-25T14:25:24.204Z,5.30
2018-04-25T14:27:51.147Z,6.97
2018-04-25T14:30:18.145Z,3.50
2018-04-25T14:32:44.412Z,3.67
2018-04-25T14:35:11.427Z,3.70
2018-04-25T14:37:37.665Z,4.93
2018-04-25T14:40:03.939Z,7.43
2018-04-25T14:42:30.180Z,5.33
2018-04-25T14:44:56.471Z,6.37
2018-04-25T14:47:23.449Z,4.67
2018-04-25T14:49:49.705Z,6.70
2018-04-25T14:52:15.925Z,10.43
2018-04-25T14:54:42.209Z,4.90
2018-04-25T14:57:08.439Z,6.40
2018-04-25T14:59:35.411Z,2.93
2018-04-25T15:02:01.707Z,4.30
2018-04-25T15:04:28.678Z,2.43
2018-04-25T15:06:54.937Z,2.03
2018-04-25T15:09:21.172Z,8.30
2018-04-25T15:11:47.443Z,6.97
2018-04-25T15:14:14.410Z,4.00
2018-04-25T15:16:40.673Z,4.20
2018-04-25T15:19:06.928Z,9.40
2018-04-25T15:21:33.138Z,6.50
2018-04-25T15:23:59.327Z,4.60
2018-04-25T15:26:25.793Z,6.07
2018-04-25T15:28:52.058Z,12.17
2018-04-25T15:31:18.297Z,6.97
2018-04-25T15:33:45.362Z,10.10
2018-04-25T15:36:11.578Z,5.13
2018-04-25T15:38:37.850Z,7.63
2018-04-25T15:41:04.103Z,4.60
2018-04-25T15:43:30.590Z,4.43
2018-04-25T15:45:56.890Z,10.07
2018-04-25T15:48:23.874Z,4.93
2018-04-25T15:50:50.131Z,8.23
2018-04-25T15:53:16.405Z,5.50
2018-04-25T15:55:43.423Z,4.40
2018-04-25T15:58:09.675Z,6.23
2018-04-25T16:00:35.930Z,8.20
2018-04-25T16:03:02.222Z,6.17
2018-04-25T16:05:28.503Z,10.47
2018-04-25T16:07:54.692Z,8.40
2018-04-25T16:10:21.723Z,12.60
2018-04-25T16:12:48.683Z,5.33
2018-04-25T16:15:15.008Z,3.87
2018-04-25T16:17:41.980Z,12.20
2018-04-25T16:20:08.499Z,5.73
2018-04-25T16:22:34.769Z,3.90
2018-04-25T16:25:01.004Z,3.40
2018-04-25T16:27:27.288Z,6.90
2018-04-25T16:29:53.540Z,4.70
2018-04-25T16:32:19.747Z,5.27
2018-04-25T16:34:46.003Z,4.53
2018-04-25T16:37:12.252Z,5.63
2018-04-25T16:39:38.511Z,10.00
2018-04-25T16:42:04.773Z,4.93
2018-04-25T16:44:31.138Z,5.33
2018-04-25T16:46:57.335Z,4.77
2018-04-25T16:49:23.572Z,3.67
2018-04-25T16:51:49.788Z,4.90
2018-04-25T16:54:16.071Z,5.13
2018-04-25T16:56:42.317Z,3.63
2018-04-25T16:59:09.262Z,17.70
2018-04-25T17:01:36.227Z,3.40
2018-04-25T17:04:02.540Z,4.30
2018-04-25T17:06:29.575Z,3.63
2018-04-25T17:08:55.849Z,6.93
2018-04-25T17:11:22.044Z,4.40
2018-04-25T17:13:49.088Z,3.40
2018-04-25T17:16:16.096Z,4.70
2018-04-25T17:18:42.330Z,3.50
2018-04-25T17:21:08.568Z,3.97
2018-04-25T17:23:34.822Z,5.40
2018-04-25T17:26:01.068Z,2.60
2018-04-25T17:28:27.308Z,7.50
2018-04-25T17:30:53.585Z,2.27
2018-04-25T17:33:21.008Z,7.13
2018-04-25T17:35:47.300Z,3.30
2018-04-25T17:38:14.306Z,6.00
2018-04-25T17:40:40.570Z,3.17
2018-04-25T17:43:07.671Z,3.93
2018-04-25T17:45:34.039Z,4.13
2018-04-25T17:48:01.047Z,2.93
2018-04-25T17:50:27.504Z,3.70
2018-04-25T17:52:53.871Z,4.50
2018-04-25T17:55:20.159Z,3.50
2018-04-25T17:57:47.244Z,4.67
2018-04-25T18:00:13.499Z,4.90
2018-04-25T18:02:39.755Z,3.20
2018-04-25T18:05:06.064Z,3.37
2018-04-25T18:07:32.635Z,5.53
2018-04-25T18:09:58.943Z,10.50
2018-04-25T18:12:25.178Z,4.13
2018-04-25T18:14:51.419Z,4.63
2018-04-25T18:17:17.683Z,2.40
2018-04-25T18:19:43.923Z,2.47
2018-04-25T18:22:10.253Z,4.40
2018-04-25T18:24:36.510Z,3.73
2018-04-25T18:27:02.775Z,2.77
2018-04-25T18:29:29.134Z,3.03
2018-04-25T18:31:55.575Z,4.93
2018-04-25T18:34:21.843Z,5.27
2018-04-25T18:36:48.119Z,3.00
2018-04-25T18:39:14.368Z,4.83
2018-04-25T18:41:40.592Z,3.23
2018-04-25T18:44:06.859Z,2.20
2018-04-25T18:46:33.076Z,2.50
2018-04-25T18:48:59.280Z,5.93
2018-04-25T18:51:25.592Z,5.40
2018-04-25T18:53:51.800Z,2.10
2018-04-25T18:56:18.028Z,2.27
2018-04-25T18:58:44.988Z,2.67
2018-04-25T19:01:11.976Z,3.20
2018-04-25T19:03:38.178Z,2.50
2018-04-25T19:06:04.712Z,3.57
2018-04-25T19:08:30.979Z,3.73
2018-04-25T19:10:57.223Z,14.53
2018-04-25T19:13:23.711Z,2.40
2018-04-25T19:15:50.064Z,4.40
2018-04-25T19:18:16.307Z,7.17
2018-04-25T19:20:42.591Z,3.50
2018-04-25T19:23:08.883Z,3.03
2018-04-25T19:25:36.062Z,2.83
2018-04-25T19:28:03.308Z,1.90
2018-04-25T19:30:29.625Z,6.10
2018-04-25T19:32:56.642Z,3.20
2018-04-25T19:35:23.114Z,2.00
2018-04-25T19:37:49.385Z,2.47
2018-04-25T19:40:15.620Z,4.50
2018-04-25T19:42:41.862Z,3.27
2018-04-25T19:45:08.154Z,3.63
2018-04-25T19:47:34.400Z,1.93
2018-04-25T19:50:00.700Z,2.63
2018-04-25T19:52:26.955Z,2.40
2018-04-25T19:54:53.213Z,1.73
2018-04-25T19:57:19.486Z,2.40
2018-04-25T19:59:45.719Z,2.23
2018-04-25T20:02:11.926Z,2.30
2018-04-25T20:04:38.967Z,1.37
2018-04-25T20:07:05.965Z,6.10
2018-04-25T20:09:33.031Z,1.80
2018-04-25T20:11:59.543Z,1.53
2018-04-25T20:14:26.113Z,1.73
2018-04-25T20:16:52.395Z,2.20
2018-04-25T20:19:18.676Z,1.50
2018-04-25T20:21:44.953Z,1.83
2018-04-25T20:24:11.201Z,1.50
2018-04-25T20:26:37.462Z,7.50
2018-04-25T20:29:03.695Z,3.13
2018-04-25T20:31:29.980Z,1.60
2018-04-25T20:33:56.230Z,1.57
2018-04-25T20:36:22.539Z,1.30
2018-04-25T20:38:48.791Z,2.15
2018-04-25T20:41:15.071Z,1.27
2018-04-25T20:43:41.377Z,1.10
2018-04-25T20:46:08.403Z,2.17
2018-04-25T20:48:34.630Z,2.07
2018-04-25T20:51:00.899Z,1.57
2018-04-25T20:53:27.928Z,1.37
2018-04-25T20:55:55.074Z,2.43
2018-04-25T20:58:21.291Z,1.43
2018-04-25T21:00:47.516Z,2.60
2018-04-25T21:03:13.791Z,2.83
2018-04-25T21:05:40.342Z,1.30
2018-04-25T21:08:06.621Z,4.10
2018-04-25T21:10:32.829Z,1.40
2018-04-25T21:12:59.113Z,2.00
2018-04-25T21:15:25.379Z,3.47
2018-04-25T21:17:51.646Z,2.60
2018-04-25T21:20:18.659Z,10.20
2018-04-25T21:22:44.901Z,2.20
2018-04-25T21:25:11.151Z,3.90
2018-04-25T21:27:37.415Z,1.50
2018-04-25T21:30:03.693Z,3.93
2018-04-25T21:32:29.970Z,1.50
2018-04-25T21:34:56.202Z,1.33
2018-04-25T21:37:22.502Z,1.70
2018-04-25T21:39:48.782Z,1.27
2018-04-25T21:42:15.111Z,5.33
2018-04-25T21:44:41.386Z,2.83
2018-04-25T21:47:08.387Z,1.27
2018-04-25T21:49:34.667Z,2.20
2018-04-25T21:52:01.693Z,1.63
2018-04-25T21:54:27.981Z,1.47
2018-04-25T21:56:54.263Z,1.10
2018-04-25T21:59:21.249Z,1.27
2018-04-25T22:01:47.491Z,1.20
2018-04-25T22:04:13.746Z,1.53
2018-04-25T22:06:40.041Z,1.83
2018-04-25T22:09:06.332Z,1.10
2018-04-25T22:11:33.336Z,4.73
2018-04-25T22:13:59.622Z,2.93
2018-04-25T22:16:25.860Z,1.43
2018-04-25T22:18:52.134Z,1.57
2018-04-25T22:21:18.435Z,2.00
2018-04-25T22:23:44.698Z,1.40
2018-04-25T22:26:10.934Z,2.50
2018-04-25T22:28:37.174Z,2.80
2018-04-25T22:31:04.178Z,2.00
2018-04-25T22:33:30.434Z,1.80
2018-04-25T22:35:56.712Z,3.47
2018-04-25T22:38:22.936Z,2.33
2018-04-25T22:40:49.205Z,6.03
2018-04-25T22:43:15.471Z,3.27
2018-04-25T22:45:42.470Z,5.30
2018-04-25T22:48:08.747Z,3.37
2018-04-25T22:50:34.996Z,3.97
2018-04-25T22:53:01.265Z,3.83
2018-04-25T22:55:27.514Z,4.30
2018-04-25T22:57:53.794Z,3.77
2018-04-25T23:00:20.067Z,3.43
2018-04-25T23:02:47.099Z,3.03
2018-04-25T23:05:13.358Z,3.30
2018-04-25T23:07:40.374Z,3.23
2018-04-25T23:10:06.630Z,2.90
2018-04-25T23:12:33.641Z,3.50
2018-04-25T23:14:59.873Z,3.13
2018-04-25T23:17:26.227Z,3.10
2018-04-25T23:19:53.238Z,4.20
2018-04-25T23:22:19.483Z,2.70
2018-04-25T23:24:45.722Z,3.37
2018-04-25T23:27:11.985Z,2.67
2018-04-25T23:29:38.226Z,2.83
2018-04-25T23:32:04.562Z,3.00
2018-04-25T23:34:31.066Z,2.67
2018-04-25T23:36:57.343Z,3.10
2018-04-25T23:39:23.623Z,2.70
2018-04-25T23:41:49.866Z,2.80
2018-04-25T23:44:16.124Z,2.60
2018-04-25T23:46:42.370Z,3.13
2018-04-25T23:49:08.614Z,3.83
2018-04-25T23:51:34.894Z,1.90
2018-04-25T23:54:01.154Z,1.70
2018-04-25T23:56:27.405Z,2.20
2018-04-25T23:58:53.642Z,2.30
